createdAt,value
2023-05-21T00:01:06.492Z,1.13
2023-05-21T00:04:54.091Z,1.10
2023-05-21T00:08:41.303Z,1.07
2023-05-21T00:12:28.513Z,1.03
2023-05-21T00:16:14.745Z,1.00
2023-05-21T00:20:04.887Z,0.93
2023-05-21T00:27:38.979Z,0.90
2023-05-21T00:31:26.285Z,1.30
2023-05-21T00:35:12.643Z,1.10
2023-05-21T00:39:00.117Z,1.20
2023-05-21T00:42:51.282Z,0.80
2023-05-21T00:46:39.115Z,1.20
2023-05-21T00:50:26.987Z,0.83
2023-05-21T00:54:15.536Z,1.00
2023-05-21T00:58:03.498Z,0.90
2023-05-21T01:01:57.000Z,0.90
2023-05-21T01:05:48.131Z,1.10
2023-05-21T01:09:39.722Z,0.90
2023-05-21T01:13:28.928Z,0.70
2023-05-21T01:17:19.912Z,1.00
2023-05-21T01:21:12.734Z,0.80
2023-05-21T01:25:00.724Z,0.90
2023-05-21T01:28:49.956Z,0.80
2023-05-21T01:33:43.314Z,0.88
2023-05-21T01:37:46.585Z,0.80
2023-05-21T01:41:40.675Z,0.70
2023-05-21T01:45:29.823Z,0.80
2023-05-21T01:49:19.324Z,0.77
2023-05-21T01:53:08.719Z,0.87
2023-05-21T01:56:57.162Z,0.80
2023-05-21T02:00:44.155Z,0.80
2023-05-21T02:04:32.606Z,1.13
2023-05-21T02:08:21.774Z,0.90
2023-05-21T02:12:08.378Z,0.60
2023-05-21T02:16:01.044Z,0.73
2023-05-21T02:19:50.306Z,0.80
2023-05-21T02:23:39.559Z,0.73
2023-05-21T02:27:26.224Z,1.00
2023-05-21T02:31:11.740Z,1.00
2023-05-21T02:35:06.562Z,0.90
2023-05-21T02:38:52.367Z,0.70
2023-05-21T02:42:41.528Z,0.63
2023-05-21T02:46:28.522Z,0.70
2023-05-21T02:50:17.120Z,0.80
2023-05-21T02:54:03.468Z,0.80
2023-05-21T02:57:50.382Z,0.80
2023-05-21T03:01:38.025Z,0.80
2023-05-21T03:05:27.015Z,0.80
2023-05-21T03:09:14.086Z,0.83
2023-05-21T03:13:01.930Z,0.70
2023-05-21T03:16:52.785Z,0.50
2023-05-21T03:20:46.221Z,0.87
2023-05-21T03:24:33.858Z,0.60
2023-05-21T03:28:22.592Z,0.60
2023-05-21T03:32:09.687Z,0.90
2023-05-21T03:35:57.623Z,0.60
2023-05-21T03:39:43.693Z,1.00
2023-05-21T03:43:29.703Z,0.77
2023-05-21T03:47:18.236Z,0.93
2023-05-21T03:51:04.883Z,0.90
2023-05-21T03:54:51.096Z,0.70
2023-05-21T03:58:38.317Z,0.80
2023-05-21T04:02:26.582Z,1.00
2023-05-21T04:06:14.746Z,1.77
2023-05-21T04:10:01.172Z,0.70
2023-05-21T04:13:47.153Z,1.00
2023-05-21T04:17:33.799Z,1.07
2023-05-21T04:21:22.025Z,0.90
2023-05-21T04:25:09.190Z,1.00
2023-05-21T04:28:56.454Z,1.17
2023-05-21T04:32:47.751Z,1.10
2023-05-21T04:36:37.691Z,0.93
2023-05-21T04:44:21.167Z,1.00
2023-05-21T04:48:15.057Z,0.90
2023-05-21T04:52:01.601Z,0.80
2023-05-21T04:55:50.607Z,0.70
2023-05-21T04:59:38.321Z,0.80
2023-05-21T05:03:24.749Z,0.70
2023-05-21T05:07:12.141Z,0.80
2023-05-21T05:11:00.144Z,0.83
2023-05-21T05:14:48.358Z,0.57
2023-05-21T05:18:40.205Z,0.70
2023-05-21T05:22:28.115Z,0.60
2023-05-21T05:26:18.840Z,0.80
2023-05-21T05:30:18.276Z,0.60
2023-05-21T05:34:07.533Z,0.60
2023-05-21T05:37:53.976Z,0.50
2023-05-21T05:41:41.315Z,0.70
2023-05-21T05:45:28.583Z,0.60
2023-05-21T05:49:16.266Z,0.63
2023-05-21T05:53:03.852Z,0.80
2023-05-21T05:56:55.089Z,0.70
2023-05-21T06:00:42.902Z,1.00
2023-05-21T06:04:32.328Z,0.70
2023-05-21T06:08:21.108Z,0.70
2023-05-21T06:12:14.960Z,0.57
2023-05-21T06:16:01.631Z,0.70
2023-05-21T06:19:52.403Z,0.70
2023-05-21T06:23:38.585Z,0.50
2023-05-21T06:27:26.427Z,0.57
2023-05-21T06:31:13.941Z,0.50
2023-05-21T06:35:04.409Z,0.70
2023-05-21T06:38:55.467Z,0.50
2023-05-21T06:42:43.191Z,0.60
2023-05-21T06:46:30.691Z,0.60
2023-05-21T06:50:17.546Z,0.90
2023-05-21T06:54:02.559Z,0.50
2023-05-21T06:57:51.091Z,0.60
2023-05-21T07:01:37.827Z,0.50
2023-05-21T07:05:25.641Z,0.50
2023-05-21T07:09:13.131Z,0.60
2023-05-21T07:13:01.076Z,0.53
2023-05-21T07:16:45.096Z,0.50
2023-05-21T07:20:30.953Z,0.80
2023-05-21T07:24:18.129Z,0.60
2023-05-21T07:28:06.644Z,0.80
2023-05-21T07:31:53.789Z,0.60
2023-05-21T07:35:42.121Z,0.60
2023-05-21T07:39:28.045Z,1.00
2023-05-21T07:43:19.024Z,0.50
2023-05-21T07:47:05.684Z,0.50
2023-05-21T07:50:51.811Z,0.77
2023-05-21T07:54:39.897Z,0.70
2023-05-21T07:58:34.632Z,0.80
2023-05-21T08:02:23.369Z,0.80
2023-05-21T08:06:09.190Z,0.50
2023-05-21T08:09:57.314Z,0.50
2023-05-21T08:13:44.750Z,0.70
2023-05-21T08:17:33.212Z,0.50
2023-05-21T08:21:19.069Z,0.60
2023-05-21T08:25:06.468Z,0.70
2023-05-21T08:28:54.042Z,0.53
2023-05-21T08:32:41.271Z,0.73
2023-05-21T08:36:27.196Z,0.60
2023-05-21T08:40:14.025Z,1.07
2023-05-21T08:44:04.513Z,0.50
2023-05-21T08:47:49.914Z,0.50
2023-05-21T08:51:41.091Z,0.50
2023-05-21T08:55:27.384Z,0.47
2023-05-21T08:59:16.400Z,0.60
2023-05-21T09:03:03.751Z,0.50
2023-05-21T09:06:51.204Z,0.77
2023-05-21T09:10:44.533Z,1.07
2023-05-21T09:14:32.188Z,0.70
2023-05-21T09:18:18.476Z,0.80
2023-05-21T09:22:08.104Z,0.77
2023-05-21T09:25:54.388Z,1.10
2023-05-21T09:29:44.741Z,1.07
2023-05-21T09:33:32.467Z,0.73
2023-05-21T09:41:14.689Z,0.70
2023-05-21T09:45:05.893Z,0.60
2023-05-21T09:48:52.603Z,0.63
2023-05-21T09:52:42.305Z,0.60
2023-05-21T09:56:26.862Z,0.77
2023-05-21T10:00:14.844Z,0.50
2023-05-21T10:04:04.071Z,0.60
2023-05-21T10:08:02.454Z,0.50
2023-05-21T10:11:46.681Z,0.60
2023-05-21T10:15:38.410Z,0.40
2023-05-21T10:19:26.081Z,0.50
2023-05-21T10:23:14.552Z,0.40
2023-05-21T10:27:02.085Z,0.50
2023-05-21T10:30:51.009Z,0.67
2023-05-21T10:34:41.647Z,0.63
2023-05-21T10:38:28.561Z,1.00
2023-05-21T10:42:27.680Z,0.60
2023-05-21T10:46:49.243Z,0.50
2023-05-21T10:51:01.742Z,0.53
2023-05-21T10:55:24.652Z,0.70
2023-05-21T10:59:44.768Z,0.60
2023-05-21T11:03:34.342Z,0.50
2023-05-21T11:07:46.570Z,0.50
2023-05-21T11:15:55.385Z,0.40
2023-05-21T11:19:47.275Z,0.47
2023-05-21T11:24:13.357Z,0.60
2023-05-21T11:28:12.116Z,0.70
2023-05-21T11:32:05.630Z,0.83
2023-05-21T11:35:58.638Z,0.80
2023-05-21T11:39:45.268Z,0.60
2023-05-21T11:43:30.100Z,0.60
2023-05-21T11:47:22.832Z,0.70
2023-05-21T11:51:06.758Z,0.53
2023-05-21T11:54:51.742Z,0.57
2023-05-21T11:58:38.265Z,0.70
2023-05-21T12:02:22.111Z,0.80
2023-05-21T12:06:12.884Z,0.90
2023-05-21T12:09:58.773Z,0.70
2023-05-21T12:13:45.575Z,0.77
2023-05-21T12:17:32.877Z,0.50
2023-05-21T12:21:15.214Z,0.67
2023-05-21T12:25:02.824Z,0.60
2023-05-21T12:28:50.903Z,0.73
2023-05-21T12:32:38.050Z,0.70
2023-05-21T12:36:32.898Z,0.70
2023-05-21T12:40:20.358Z,0.50
2023-05-21T12:44:09.200Z,0.57
2023-05-21T12:48:00.260Z,0.65
2023-05-21T12:51:50.275Z,0.57
2023-05-21T12:55:38.919Z,0.60
2023-05-21T12:59:26.575Z,0.60
2023-05-21T13:03:13.556Z,0.63
2023-05-21T13:06:59.755Z,0.50
2023-05-21T13:10:47.298Z,0.60
2023-05-21T13:14:34.343Z,0.60
2023-05-21T13:18:23.347Z,0.77
2023-05-21T13:22:11.724Z,0.70
2023-05-21T13:25:59.295Z,0.80
2023-05-21T13:29:46.155Z,0.63
2023-05-21T13:33:35.714Z,0.70
2023-05-21T13:37:23.714Z,0.52
2023-05-21T13:41:08.998Z,0.90
2023-05-21T13:44:56.798Z,0.73
2023-05-21T13:48:43.722Z,0.73
2023-05-21T13:52:30.625Z,0.70
2023-05-21T13:56:19.200Z,0.60
2023-05-21T14:00:06.957Z,0.80
2023-05-21T14:03:53.411Z,0.70
2023-05-21T14:07:42.242Z,0.70
2023-05-21T14:11:29.463Z,0.60
2023-05-21T14:15:16.755Z,0.90
2023-05-21T14:19:04.523Z,0.60
2023-05-21T14:22:51.670Z,0.70
2023-05-21T14:26:40.786Z,1.00
2023-05-21T14:30:27.167Z,0.93
2023-05-21T14:34:16.284Z,1.00
2023-05-21T14:38:06.651Z,1.00
2023-05-21T14:41:54.265Z,0.83
2023-05-21T14:45:40.828Z,1.07
2023-05-21T14:49:27.523Z,1.07
2023-05-21T14:53:15.879Z,0.80
2023-05-21T14:56:57.762Z,0.80
2023-05-21T15:00:44.226Z,0.73
2023-05-21T15:04:30.575Z,1.63
2023-05-21T15:08:17.670Z,0.73
2023-05-21T15:12:04.562Z,0.90
2023-05-21T15:15:50.750Z,0.80
2023-05-21T15:19:38.046Z,0.70
2023-05-21T15:23:24.661Z,0.67
2023-05-21T15:27:12.964Z,0.60
2023-05-21T15:31:06.070Z,0.70
2023-05-21T15:34:54.848Z,0.80
2023-05-21T15:38:42.878Z,0.70
2023-05-21T15:42:35.940Z,0.80
2023-05-21T15:46:25.926Z,0.80
2023-05-21T15:50:16.209Z,0.60
2023-05-21T15:54:03.872Z,0.70
2023-05-21T15:57:49.700Z,0.80
2023-05-21T16:01:39.596Z,0.50
2023-05-21T16:05:25.568Z,0.80
2023-05-21T16:09:12.652Z,0.60
2023-05-21T16:13:00.037Z,0.60
2023-05-21T16:16:46.898Z,0.80
2023-05-21T16:20:35.436Z,0.63
2023-05-21T16:24:23.560Z,0.80
2023-05-21T16:28:10.367Z,0.50
2023-05-21T16:31:55.366Z,0.60
2023-05-21T16:35:42.264Z,0.70
2023-05-21T16:39:28.754Z,0.80
2023-05-21T16:43:19.821Z,0.73
2023-05-21T16:47:08.666Z,0.63
2023-05-21T16:50:54.797Z,0.60
2023-05-21T16:54:40.907Z,0.80
2023-05-21T16:58:26.715Z,0.70
2023-05-21T17:02:17.215Z,0.80
2023-05-21T17:06:04.731Z,0.60
2023-05-21T17:09:53.289Z,0.70
2023-05-21T17:13:40.706Z,0.70
2023-05-21T17:17:27.537Z,0.80
2023-05-21T17:21:13.541Z,0.70
2023-05-21T17:25:01.775Z,0.63
2023-05-21T17:28:48.962Z,0.80
2023-05-21T17:32:36.742Z,0.70
2023-05-21T17:36:24.867Z,0.60
2023-05-21T17:40:10.957Z,0.60
2023-05-21T17:43:58.032Z,0.60
2023-05-21T17:47:45.233Z,0.70
2023-05-21T17:51:32.581Z,0.57
2023-05-21T17:55:21.053Z,0.70
2023-05-21T17:59:12.608Z,0.70
2023-05-21T18:02:59.509Z,0.60
2023-05-21T18:06:45.315Z,0.53
2023-05-21T18:10:31.784Z,0.70
2023-05-21T18:14:19.512Z,0.70
2023-05-21T18:18:07.119Z,0.90
2023-05-21T18:21:54.846Z,1.00
2023-05-21T18:25:36.616Z,1.00
2023-05-21T18:29:23.066Z,0.83
2023-05-21T18:33:10.463Z,0.90
2023-05-21T18:37:01.952Z,0.70
2023-05-21T18:40:49.785Z,0.67
2023-05-21T18:44:37.014Z,0.70
2023-05-21T18:48:28.226Z,0.80
2023-05-21T18:52:22.008Z,0.70
2023-05-21T18:56:04.806Z,0.70
2023-05-21T18:59:51.984Z,0.63
2023-05-21T19:03:37.948Z,0.77
2023-05-21T19:07:27.260Z,0.80
2023-05-21T19:11:14.100Z,0.73
2023-05-21T19:15:01.679Z,0.70
2023-05-21T19:18:48.839Z,0.80
2023-05-21T19:22:34.911Z,0.77
2023-05-21T19:26:17.082Z,0.60
2023-05-21T19:30:05.051Z,0.80
2023-05-21T19:33:47.963Z,0.80
2023-05-21T19:37:35.640Z,0.97
2023-05-21T19:41:18.751Z,0.80
2023-05-21T19:45:08.156Z,0.80
2023-05-21T19:48:50.988Z,0.98
2023-05-21T19:52:37.844Z,0.60
2023-05-21T19:56:19.621Z,0.80
2023-05-21T20:00:04.359Z,0.80
2023-05-21T20:03:52.258Z,0.73
2023-05-21T20:07:34.094Z,0.80
2023-05-21T20:11:16.166Z,0.90
2023-05-21T20:15:03.102Z,0.90
2023-05-21T20:18:50.131Z,0.70
2023-05-21T20:22:32.059Z,1.00
2023-05-21T20:26:19.351Z,0.90
2023-05-21T20:30:07.898Z,1.07
2023-05-21T20:33:55.852Z,1.10
2023-05-21T20:37:42.913Z,0.80
2023-05-21T20:41:30.594Z,1.10
2023-05-21T20:45:21.194Z,1.00
2023-05-21T20:49:13.118Z,0.77
2023-05-21T20:53:00.479Z,0.80
2023-05-21T20:56:48.546Z,0.87
2023-05-21T21:00:31.774Z,1.10
2023-05-21T21:04:24.198Z,1.00
2023-05-21T21:08:11.327Z,0.87
2023-05-21T21:11:53.077Z,1.07
2023-05-21T21:15:42.940Z,0.90
2023-05-21T21:23:19.211Z,0.90
2023-05-21T21:27:06.124Z,1.10
2023-05-21T21:30:54.391Z,0.80
2023-05-21T21:34:41.607Z,1.10
2023-05-21T21:38:28.522Z,0.90
2023-05-21T21:42:15.455Z,0.70
2023-05-21T21:46:02.523Z,0.80
2023-05-21T21:49:51.934Z,0.80
2023-05-21T21:53:39.808Z,0.90
2023-05-21T21:57:26.702Z,0.73
2023-05-21T22:01:11.915Z,0.80
2023-05-21T22:04:58.125Z,0.90
2023-05-21T22:08:45.395Z,1.00
2023-05-21T22:12:32.658Z,1.13
2023-05-21T22:16:18.851Z,0.90
2023-05-21T22:20:05.347Z,0.90
2023-05-21T22:23:51.773Z,0.83
2023-05-21T22:27:39.165Z,1.00
2023-05-21T22:31:25.900Z,1.00
2023-05-21T22:35:14.457Z,0.97
2023-05-21T22:39:01.274Z,1.13
2023-05-21T22:42:49.954Z,0.87
2023-05-21T22:46:38.584Z,0.90
2023-05-21T22:50:24.820Z,0.90
2023-05-21T22:54:11.614Z,0.87
2023-05-21T22:57:59.053Z,0.90
2023-05-21T23:01:44.751Z,0.90
2023-05-21T23:05:29.080Z,0.80
2023-05-21T23:09:15.022Z,1.10
2023-05-21T23:13:01.248Z,1.00
2023-05-21T23:16:46.382Z,1.27
2023-05-21T23:20:34.083Z,0.97
2023-05-21T23:24:21.332Z,1.10
2023-05-21T23:28:08.069Z,1.30
2023-05-21T23:31:53.898Z,1.50
2023-05-21T23:35:39.046Z,1.50
2023-05-21T23:39:25.751Z,1.90
2023-05-21T23:43:10.264Z,1.90
2023-05-21T23:46:59.752Z,2.13
2023-05-21T23:50:46.950Z,1.92
2023-05-21T23:54:34.222Z,2.50
2023-05-21T23:58:21.423Z,2.20
